Gwarzo, Nigeria
Current Conditions -  °F | °C
As of 12:00 AM on Thursday 23 Oct 2014 (Local Time) from KQAZ Reporting Station
Clear Clear  
Wind Chill: 77°   Ceiling: Unl
Heat Index: 77°   Visibility: 6mi
Dew Point: 30°   Wind: 3mph
Humidity: 18%   Direction: 80°E
Pressure: 29.95"   Gusts: NA
Location:  11.91°N, 7.94°E
Report Text: KQAZ 222300Z AUTO 08003KT 9999 CLR 25/M01 A2995 RMK CDP03565 CLR
Loading
Personal Weather Stations






























Interactive Weather Map
Tropical Storm Tracking
New forecast layout! Learn more

10-Day Weather Forecast

Advertisements
Track Severe Weather on mobile